Time;durP1;ratioP1;P1;durP2;ratioP2;P2;SDS_P1;SDS_P2;PMS_P1;PMS_P2;Temp;Humidity;BMP_temperature;BMP_pressure;BME280_temperature;BME280_humidity;BME280_pressure;Samples;Min_cycle;Max_cycle;Signal;HPM_P1;HPM_P2
2022/12/23 00:01:32;;;;;;;2.80;0.68;;;;;;;;;;5070014;28;20044;-75
2022/12/23 00:04:04;;;;;;;2.35;0.57;;;;;;;;;;5069460;28;20051;-74
2022/12/23 00:06:34;;;;;;;2.70;0.80;;;;;;;;;;5069733;28;20043;-74
2022/12/23 00:09:05;;;;;;;3.53;0.63;;;;;;;;;;5068767;28;20045;-74
2022/12/23 00:11:34;;;;;;;10.30;0.85;;;;;;;;;;5068503;28;20041;-74
2022/12/23 00:17:01;;;;;;;4.43;0.75;;;;;;;;;;5069099;28;20512;-74
2022/12/23 00:19:50;;;;;;;5.15;0.77;;;;;;;;;;5068839;28;20044;-75
2022/12/23 00:23:03;;;;;;;6.75;1.20;;;;;;;;;;5069083;28;20512;-74
2022/12/23 00:25:11;;;;;;;4.13;0.90;;;;;;;;;;5068859;28;20071;-74
2022/12/23 00:28:00;;;;;;;10.30;1.20;;;;;;;;;;5069295;28;20049;-74
2022/12/23 00:30:31;;;;;;;4.55;0.98;;;;;;;;;;5069919;28;20044;-74
2022/12/23 00:33:01;;;;;;;5.13;1.02;;;;;;;;;;5068739;28;20040;-74
2022/12/23 00:35:31;;;;;;;5.00;0.93;;;;;;;;;;5068533;28;20041;-75
2022/12/23 00:38:02;;;;;;;10.93;0.93;;;;;;;;;;5068800;28;20091;-75
2022/12/23 00:43:22;;;;;;;6.00;0.90;;;;;;;;;;5068640;28;20404;-75
2022/12/23 00:45:52;;;;;;;4.25;1.20;;;;;;;;;;5068060;28;20044;-74
2022/12/23 00:51:12;;;;;;;3.08;1.02;;;;;;;;;;5068008;28;20464;-74
2022/12/23 00:53:43;;;;;;;5.30;1.05;;;;;;;;;;5068911;28;20044;-75
2022/12/23 00:56:12;;;;;;;5.68;0.80;;;;;;;;;;5068356;28;20052;-74
2022/12/23 00:58:43;;;;;;;6.55;1.00;;;;;;;;;;5080130;28;20423;-74
2022/12/23 01:06:51;;;;;;;6.25;1.15;;;;;;;;;;5066313;28;20064;-75
2022/12/23 01:09:23;;;;;;;1.67;0.75;;;;;;;;;;5068217;28;20048;-75
2022/12/23 01:11:54;;;;;;;4.85;0.90;;;;;;;;;;5065486;28;20052;-74
2022/12/23 01:14:25;;;;;;;3.13;0.77;;;;;;;;;;5068348;28;20052;-74
2022/12/23 01:16:54;;;;;;;5.45;0.98;;;;;;;;;;5067941;28;20048;-74
2022/12/23 01:19:26;;;;;;;2.75;0.80;;;;;;;;;;5082996;28;20051;-75
2022/12/23 01:21:57;;;;;;;7.43;1.13;;;;;;;;;;5067904;28;20055;-74
2022/12/23 01:24:29;;;;;;;4.55;0.70;;;;;;;;;;5067489;28;20052;-74
2022/12/23 01:27:00;;;;;;;2.30;0.70;;;;;;;;;;5067431;28;20047;-74
2022/12/23 01:29:30;;;;;;;2.78;0.68;;;;;;;;;;5067505;28;20518;-74
2022/12/23 01:32:01;;;;;;;3.38;1.15;;;;;;;;;;5068443;28;20045;-73
2022/12/23 01:34:33;;;;;;;5.35;0.98;;;;;;;;;;5068534;28;20147;-74
2022/12/23 01:37:05;;;;;;;1.95;0.60;;;;;;;;;;5067147;28;20059;-74
2022/12/23 01:39:36;;;;;;;3.47;0.80;;;;;;;;;;5067698;28;20048;-76
2022/12/23 01:45:05;;;;;;;3.53;1.00;;;;;;;;;;5067248;28;20048;-74
2022/12/23 01:47:47;;;;;;;1.58;0.55;;;;;;;;;;5067720;28;20045;-74
2022/12/23 01:50:26;;;;;;;2.95;1.08;;;;;;;;;;5066793;28;20049;-76
2022/12/23 01:53:10;;;;;;;4.00;0.60;;;;;;;;;;5067374;28;20048;-75
2022/12/23 01:55:58;;;;;;;6.10;1.00;;;;;;;;;;5064950;28;20831;-75
2022/12/23 01:58:38;;;;;;;2.80;0.60;;;;;;;;;;5065101;28;20044;-75
2022/12/23 02:04:03;;;;;;;3.00;0.77;;;;;;;;;;5064325;28;20051;-76
2022/12/23 02:09:31;;;;;;;2.40;0.70;;;;;;;;;;5065108;28;20044;-73
2022/12/23 02:12:23;;;;;;;8.25;1.10;;;;;;;;;;5066845;28;20499;-75
2022/12/23 02:18:20;;;;;;;2.35;0.60;;;;;;;;;;5067129;28;20067;-74
2022/12/23 02:21:28;;;;;;;1.88;0.60;;;;;;;;;;5066692;28;20052;-74
2022/12/23 02:24:05;;;;;;;2.97;0.85;;;;;;;;;;5066049;28;20068;-75
2022/12/23 02:26:54;;;;;;;2.75;0.80;;;;;;;;;;5066557;28;20049;-74
2022/12/23 02:29:45;;;;;;;2.70;0.60;;;;;;;;;;5066587;28;20586;-74
2022/12/23 02:32:22;;;;;;;3.45;0.68;;;;;;;;;;5066883;28;20055;-74
2022/12/23 02:35:00;;;;;;;2.58;0.80;;;;;;;;;;5066522;28;20048;-75
2022/12/23 02:37:36;;;;;;;1.83;0.60;;;;;;;;;;5066745;28;20049;-74
2022/12/23 02:40:20;;;;;;;2.10;0.52;;;;;;;;;;5066249;28;20041;-74
2022/12/23 02:43:00;;;;;;;3.90;0.70;;;;;;;;;;5066401;28;20507;-74
2022/12/23 02:45:42;;;;;;;2.72;0.80;;;;;;;;;;5066612;28;20049;-74
2022/12/23 02:48:35;;;;;;;3.28;0.65;;;;;;;;;;5065106;28;20059;-74
2022/12/23 02:51:08;;;;;;;4.50;0.70;;;;;;;;;;5066645;28;20049;-74
2022/12/23 02:53:46;;;;;;;2.58;0.55;;;;;;;;;;5066782;28;20052;-74
2022/12/23 02:56:20;;;;;;;4.03;0.60;;;;;;;;;;5066626;28;20052;-75
2022/12/23 02:59:21;;;;;;;2.72;0.70;;;;;;;;;;5066457;28;20534;-74
2022/12/23 03:01:53;;;;;;;3.40;0.98;;;;;;;;;;5066454;28;20049;-74
2022/12/23 03:04:24;;;;;;;2.85;0.60;;;;;;;;;;5066544;28;20044;-75
2022/12/23 03:06:58;;;;;;;5.10;0.52;;;;;;;;;;5066647;28;20076;-74
2022/12/23 03:10:00;;;;;;;1.02;0.50;;;;;;;;;;5066259;28;20512;-74
2022/12/23 03:13:03;;;;;;;2.03;0.50;;;;;;;;;;5066099;28;20044;-74
2022/12/23 03:15:51;;;;;;;0.50;0.50;;;;;;;;;;5066556;28;20078;-74
2022/12/23 03:18:41;;;;;;;4.45;0.70;;;;;;;;;;5067202;28;20053;-74
2022/12/23 03:21:22;;;;;;;4.05;0.55;;;;;;;;;;5066619;28;20041;-75
2022/12/23 03:24:06;;;;;;;2.25;0.50;;;;;;;;;;5066137;28;20060;-74
2022/12/23 03:26:47;;;;;;;0.95;0.52;;;;;;;;;;5066241;28;20041;-74
2022/12/23 03:29:46;;;;;;;3.92;0.55;;;;;;;;;;5067796;28;20047;-74
2022/12/23 03:32:19;;;;;;;2.08;0.60;;;;;;;;;;5069637;28;20052;-74
2022/12/23 03:34:53;;;;;;;3.03;0.95;;;;;;;;;;5069811;28;20049;-74
2022/12/23 03:37:26;;;;;;;6.40;0.68;;;;;;;;;;5070347;28;20052;-74
2022/12/23 03:40:22;;;;;;;1.23;0.60;;;;;;;;;;5069692;28;20040;-74
2022/12/23 03:43:16;;;;;;;2.25;0.40;;;;;;;;;;5070099;28;20053;-73
2022/12/23 03:45:56;;;;;;;3.55;1.10;;;;;;;;;;5061584;28;20056;-74
2022/12/23 03:48:31;;;;;;;;;;;;;;;;;;5070129;28;20056;-74
2022/12/23 03:51:06;;;;;;;2.78;0.40;;;;;;;;;;5069778;28;19924;-74
2022/12/23 03:53:51;;;;;;;4.55;0.65;;;;;;;;;;5068291;28;20479;-74
2022/12/23 03:56:34;;;;;;;2.45;0.45;;;;;;;;;;5069152;28;20503;-74
2022/12/23 03:59:13;;;;;;;2.78;0.50;;;;;;;;;;5069621;28;20047;-74
2022/12/23 04:02:02;;;;;;;1.38;0.60;;;;;;;;;;5069594;28;20037;-74
2022/12/23 04:05:02;;;;;;;2.83;0.82;;;;;;;;;;5069374;28;20059;-74
2022/12/23 04:07:48;;;;;;;2.70;0.60;;;;;;;;;;5068898;28;20534;-74
2022/12/23 04:10:20;;;;;;;5.53;0.65;;;;;;;;;;5068977;28;20045;-74
2022/12/23 04:12:52;;;;;;;1.35;0.50;;;;;;;;;;5069613;28;20040;-74
2022/12/23 04:15:25;;;;;;;1.00;0.45;;;;;;;;;;5069256;28;20075;-74
2022/12/23 04:17:56;;;;;;;3.92;0.38;;;;;;;;;;5069352;28;20055;-73
2022/12/23 04:20:26;;;;;;;6.03;0.90;;;;;;;;;;5069047;28;20056;-74
2022/12/23 04:22:57;;;;;;;8.02;1.02;;;;;;;;;;5069071;28;20525;-74
2022/12/23 04:25:28;;;;;;;2.63;0.60;;;;;;;;;;5067078;28;20048;-74
2022/12/23 04:27:58;;;;;;;2.67;0.63;;;;;;;;;;5068751;28;20053;-74
2022/12/23 04:30:28;;;;;;;4.47;0.77;;;;;;;;;;5069351;28;20475;-74
2022/12/23 04:33:03;;;;;;;1.65;0.60;;;;;;;;;;5069974;28;20048;-74
2022/12/23 04:36:01;;;;;;;3.05;0.60;;;;;;;;;;5068437;28;20045;-74
2022/12/23 04:38:31;;;;;;;4.38;0.60;;;;;;;;;;5069424;28;20056;-74
2022/12/23 04:41:01;;;;;;;4.10;0.70;;;;;;;;;;5067576;28;20404;-74
2022/12/23 04:43:31;;;;;;;2.47;0.60;;;;;;;;;;5068958;28;20048;-74
2022/12/23 04:46:01;;;;;;;3.95;0.55;;;;;;;;;;5068559;28;20041;-74
2022/12/23 04:48:33;;;;;;;1.80;0.80;;;;;;;;;;5068343;28;20044;-73
2022/12/23 04:51:03;;;;;;;4.00;0.57;;;;;;;;;;5068845;28;20049;-74
2022/12/23 04:53:36;;;;;;;3.00;0.55;;;;;;;;;;5068636;28;20057;-74
2022/12/23 04:56:07;;;;;;;3.20;0.82;;;;;;;;;;5068604;28;20048;-73
2022/12/23 04:58:38;;;;;;;2.58;0.90;;;;;;;;;;5066750;28;20051;-74
2022/12/23 05:01:10;;;;;;;1.73;0.55;;;;;;;;;;5068239;28;20051;-74
2022/12/23 05:03:42;;;;;;;1.77;0.43;;;;;;;;;;5068460;28;20052;-74
2022/12/23 05:06:13;;;;;;;1.48;0.60;;;;;;;;;;5066931;28;20040;-74
2022/12/23 05:08:43;;;;;;;1.90;0.60;;;;;;;;;;5068286;28;20040;-73
2022/12/23 05:11:13;;;;;;;1.77;0.40;;;;;;;;;;5068080;28;20542;-74
2022/12/23 05:13:43;;;;;;;2.80;0.60;;;;;;;;;;5067959;28;20051;-73
2022/12/23 05:16:14;;;;;;;1.80;0.60;;;;;;;;;;5068176;28;20111;-74
2022/12/23 05:18:44;;;;;;;0.75;0.60;;;;;;;;;;5068289;28;20048;-74
2022/12/23 05:21:16;;;;;;;1.55;0.82;;;;;;;;;;5067390;28;20857;-73
2022/12/23 05:23:45;;;;;;;1.75;0.85;;;;;;;;;;5068191;28;20075;-74
2022/12/23 05:26:16;;;;;;;4.28;0.60;;;;;;;;;;5067980;28;20601;-73
2022/12/23 05:28:47;;;;;;;2.33;0.75;;;;;;;;;;5067879;28;20044;-74
2022/12/23 05:31:17;;;;;;;4.75;0.80;;;;;;;;;;5068359;28;20057;-74
2022/12/23 05:33:47;;;;;;;2.85;0.80;;;;;;;;;;5068014;28;20507;-73
2022/12/23 05:36:18;;;;;;;5.05;0.82;;;;;;;;;;5067367;28;20048;-74
2022/12/23 05:39:16;;;;;;;3.47;0.60;;;;;;;;;;5067667;28;20032;-74
2022/12/23 05:41:46;;;;;;;3.83;0.90;;;;;;;;;;5068010;28;20048;-73
2022/12/23 05:44:16;;;;;;;6.38;0.70;;;;;;;;;;5068703;28;20472;-74
2022/12/23 05:46:46;;;;;;;1.33;0.70;;;;;;;;;;5067728;28;20055;-73
2022/12/23 05:49:16;;;;;;;1.35;0.47;;;;;;;;;;5067409;28;20041;-74
2022/12/23 05:51:46;;;;;;;2.30;0.43;;;;;;;;;;5067098;28;20051;-73
2022/12/23 05:54:17;;;;;;;3.88;1.00;;;;;;;;;;5067153;28;20052;-73
2022/12/23 05:56:48;;;;;;;1.00;0.60;;;;;;;;;;5066990;28;20507;-73
2022/12/23 05:59:18;;;;;;;2.95;0.80;;;;;;;;;;5066882;28;20044;-73
2022/12/23 06:01:48;;;;;;;1.92;1.08;;;;;;;;;;5065120;28;20470;-73
2022/12/23 06:04:20;;;;;;;1.23;0.73;;;;;;;;;;5067641;28;20059;-74
2022/12/23 06:06:50;;;;;;;3.20;0.90;;;;;;;;;;5067625;28;20040;-74
2022/12/23 06:09:20;;;;;;;1.33;0.70;;;;;;;;;;5067473;28;20463;-73
2022/12/23 06:11:50;;;;;;;2.10;1.00;;;;;;;;;;5067005;28;20491;-73
2022/12/23 06:14:20;;;;;;;2.17;0.60;;;;;;;;;;5066872;28;20059;-74
2022/12/23 06:16:57;;;;;;;1.38;0.50;;;;;;;;;;5067038;28;20056;-73
2022/12/23 06:19:29;;;;;;;4.07;0.90;;;;;;;;;;5065778;28;20055;-74
2022/12/23 06:21:59;;;;;;;1.55;0.65;;;;;;;;;;5066592;28;20051;-73
2022/12/23 06:24:30;;;;;;;1.05;0.70;;;;;;;;;;5067049;28;20048;-73
2022/12/23 06:27:01;;;;;;;4.72;0.90;;;;;;;;;;5065493;28;20055;-73
2022/12/23 06:29:33;;;;;;;1.55;0.77;;;;;;;;;;5067017;28;20545;-74
2022/12/23 06:32:03;;;;;;;1.48;0.88;;;;;;;;;;5067031;28;20051;-73
2022/12/23 06:34:33;;;;;;;3.58;0.95;;;;;;;;;;5066613;28;20036;-74
2022/12/23 06:37:04;;;;;;;1.98;0.80;;;;;;;;;;5065364;28;20056;-73
2022/12/23 06:39:36;;;;;;;1.15;0.80;;;;;;;;;;5066938;28;20055;-74
2022/12/23 06:42:08;;;;;;;2.58;1.05;;;;;;;;;;5066681;28;20131;-74
2022/12/23 06:44:38;;;;;;;5.43;1.20;;;;;;;;;;5066900;28;20059;-74
2022/12/23 06:47:08;;;;;;;2.15;1.13;;;;;;;;;;5064838;28;20055;-74
2022/12/23 06:49:38;;;;;;;1.98;0.75;;;;;;;;;;5066683;28;20048;-73
2022/12/23 06:52:10;;;;;;;4.70;1.00;;;;;;;;;;5066790;28;20040;-74
2022/12/23 06:54:40;;;;;;;4.60;1.10;;;;;;;;;;5067235;28;20048;-73
2022/12/23 06:57:10;;;;;;;2.85;0.70;;;;;;;;;;5067040;28;20048;-74
2022/12/23 06:59:40;;;;;;;2.95;0.90;;;;;;;;;;5066334;28;20044;-74
2022/12/23 07:02:12;;;;;;;2.40;1.00;;;;;;;;;;5066220;28;20051;-74
2022/12/23 07:04:42;;;;;;;2.22;0.98;;;;;;;;;;5065710;28;20064;-73
2022/12/23 07:07:12;;;;;;;3.20;0.90;;;;;;;;;;5066365;28;20115;-73
2022/12/23 07:09:42;;;;;;;3.28;1.00;;;;;;;;;;5065621;28;20051;-73
2022/12/23 07:12:14;;;;;;;1.73;1.00;;;;;;;;;;5066190;28;20523;-73
2022/12/23 07:14:44;;;;;;;3.53;0.90;;;;;;;;;;5064913;28;20072;-73
2022/12/23 07:17:14;;;;;;;3.40;0.95;;;;;;;;;;5066032;28;20052;-73
2022/12/23 07:19:44;;;;;;;3.50;1.30;;;;;;;;;;5066570;28;20056;-73
2022/12/23 07:22:14;;;;;;;2.28;0.98;;;;;;;;;;5066929;28;20714;-73
2022/12/23 07:24:45;;;;;;;2.17;0.82;;;;;;;;;;5065639;28;20048;-73
2022/12/23 07:27:15;;;;;;;4.30;1.10;;;;;;;;;;5064671;28;20060;-73
2022/12/23 07:29:46;;;;;;;3.45;0.95;;;;;;;;;;5066333;28;20044;-73
2022/12/23 07:32:16;;;;;;;3.03;1.00;;;;;;;;;;5066020;28;20594;-73
2022/12/23 07:34:47;;;;;;;3.08;1.00;;;;;;;;;;5066178;28;20067;-73
2022/12/23 07:37:18;;;;;;;5.55;1.13;;;;;;;;;;5065663;28;20073;-73
2022/12/23 07:39:48;;;;;;;2.65;1.00;;;;;;;;;;5065648;28;20084;-73
2022/12/23 07:42:18;;;;;;;2.17;0.93;;;;;;;;;;5066797;28;20041;-73
2022/12/23 07:45:08;;;;;;;3.75;1.08;;;;;;;;;;5066258;28;20041;-73
2022/12/23 07:47:39;;;;;;;5.47;0.95;;;;;;;;;;5065793;28;20048;-73
2022/12/23 07:50:10;;;;;;;2.40;0.95;;;;;;;;;;5064742;28;20063;-73
2022/12/23 07:52:41;;;;;;;4.32;1.10;;;;;;;;;;5066420;28;20387;-73
2022/12/23 07:55:12;;;;;;;1.95;1.05;;;;;;;;;;5066238;28;20399;-73
2022/12/23 07:57:42;;;;;;;1.55;0.82;;;;;;;;;;5065923;28;20059;-73
2022/12/23 08:00:14;;;;;;;1.38;1.00;;;;;;;;;;5064450;28;20048;-73
2022/12/23 08:02:45;;;;;;;1.90;1.02;;;;;;;;;;5066101;28;20051;-73
2022/12/23 08:05:15;;;;;;;2.60;0.90;;;;;;;;;;5064408;28;20435;-73
2022/12/23 08:07:48;;;;;;;1.63;0.82;;;;;;;;;;5065995;28;20523;-73
2022/12/23 08:10:19;;;;;;;0.93;0.75;;;;;;;;;;5065664;28;20052;-76
2022/12/23 08:12:49;;;;;;;3.45;0.90;;;;;;;;;;5065589;28;20053;-73
2022/12/23 08:15:19;;;;;;;5.18;0.93;;;;;;;;;;5065592;28;20051;-73
2022/12/23 08:17:49;;;;;;;2.75;1.10;;;;;;;;;;5069001;28;20045;-73
2022/12/23 08:20:20;;;;;;;1.45;0.80;;;;;;;;;;5069203;28;20048;-73
2022/12/23 08:22:50;;;;;;;3.03;1.08;;;;;;;;;;5067157;28;20530;-73
2022/12/23 08:25:20;;;;;;;5.95;1.05;;;;;;;;;;5068983;28;20044;-73
2022/12/23 08:27:50;;;;;;;2.80;1.00;;;;;;;;;;5067893;28;20048;-73
2022/12/23 08:30:20;;;;;;;1.73;0.85;;;;;;;;;;5069403;28;20052;-73
2022/12/23 08:32:51;;;;;;;1.77;1.20;;;;;;;;;;5068879;28;20055;-73
2022/12/23 08:35:21;;;;;;;3.08;0.73;;;;;;;;;;5069067;28;20044;-73
2022/12/23 08:37:51;;;;;;;4.38;0.90;;;;;;;;;;5069105;28;20057;-73
2022/12/23 08:40:21;;;;;;;2.38;1.05;;;;;;;;;;5068941;28;20055;-73
2022/12/23 08:42:51;;;;;;;1.45;0.90;;;;;;;;;;5068510;28;20048;-75
2022/12/23 08:45:48;;;;;;;2.38;1.10;;;;;;;;;;5068432;28;20055;-73
2022/12/23 08:48:19;;;;;;;7.68;0.93;;;;;;;;;;5068544;28;20048;-73
2022/12/23 08:50:50;;;;;;;2.13;1.08;;;;;;;;;;5067416;28;20419;-73
2022/12/23 08:53:19;;;;;;;3.08;0.90;;;;;;;;;;5069068;28;20459;-73
2022/12/23 08:55:51;;;;;;;6.18;1.13;;;;;;;;;;5068365;28;20055;-73
2022/12/23 08:58:22;;;;;;;2.78;0.93;;;;;;;;;;5068632;28;20522;-73
2022/12/23 09:00:53;;;;;;;3.63;1.15;;;;;;;;;;5068240;28;20045;-73
2022/12/23 09:03:24;;;;;;;1.30;0.90;;;;;;;;;;5068343;28;20044;-73
2022/12/23 09:05:54;;;;;;;1.92;0.77;;;;;;;;;;5068630;28;20522;-73
2022/12/23 09:08:25;;;;;;;3.50;1.08;;;;;;;;;;5068576;28;20411;-73
2022/12/23 09:10:57;;;;;;;5.68;1.23;;;;;;;;;;5068056;28;20049;-73
2022/12/23 09:13:28;;;;;;;3.22;0.80;;;;;;;;;;5068665;28;20521;-73
2022/12/23 09:16:05;;;;;;;1.35;0.82;;;;;;;;;;5067419;28;20044;-73
2022/12/23 09:18:36;;;;;;;2.92;1.27;;;;;;;;;;5067127;28;20060;-73
2022/12/23 09:21:12;;;;;;;1.70;0.90;;;;;;;;;;5068068;28;20051;-73
2022/12/23 09:23:43;;;;;;;3.65;0.85;;;;;;;;;;5068131;28;20830;-73
2022/12/23 09:26:24;;;;;;;2.42;0.95;;;;;;;;;;5067663;28;20045;-73
2022/12/23 09:28:55;;;;;;;3.47;1.00;;;;;;;;;;5068138;28;20044;-73
2022/12/23 09:31:27;;;;;;;6.85;1.20;;;;;;;;;;5067949;28;20087;-73
2022/12/23 09:34:05;;;;;;;3.65;1.02;;;;;;;;;;5065606;28;20415;-74
2022/12/23 09:36:35;;;;;;;11.75;1.98;;;;;;;;;;5067808;28;20048;-73
2022/12/23 09:39:06;;;;;;;4.75;1.23;;;;;;;;;;5067857;28;20052;-73
2022/12/23 09:42:00;;;;;;;6.68;1.45;;;;;;;;;;5067943;28;20055;-74
2022/12/23 09:45:11;;;;;;;7.55;1.25;;;;;;;;;;5067121;28;20480;-74
2022/12/23 09:47:43;;;;;;;3.35;1.25;;;;;;;;;;5063039;28;20059;-73
2022/12/23 09:50:20;;;;;;;4.07;0.95;;;;;;;;;;5067484;28;20407;-73
2022/12/23 09:53:05;;;;;;;2.50;1.05;;;;;;;;;;5067286;28;20065;-74
2022/12/23 09:55:43;;;;;;;3.92;1.20;;;;;;;;;;5067129;28;20049;-74
2022/12/23 09:58:31;;;;;;;4.05;1.10;;;;;;;;;;5067343;28;20495;-74
2022/12/23 10:01:32;;;;;;;2.30;1.00;;;;;;;;;;5067156;28;20040;-74
2022/12/23 10:04:36;;;;;;;9.07;0.90;;;;;;;;;;5066829;28;20060;-74
2022/12/23 10:07:18;;;;;;;4.28;0.93;;;;;;;;;;5067557;28;20487;-74
2022/12/23 10:09:52;;;;;;;4.47;1.23;;;;;;;;;;5065728;28;20052;-74
2022/12/23 10:12:29;;;;;;;2.30;0.80;;;;;;;;;;5066450;28;20499;-74
2022/12/23 10:15:20;;;;;;;3.47;1.10;;;;;;;;;;5067480;28;20048;-74
2022/12/23 10:17:55;;;;;;;1.45;1.10;;;;;;;;;;5065098;28;20431;-74
2022/12/23 10:20:39;;;;;;;5.18;1.10;;;;;;;;;;5066890;28;20075;-76
2022/12/23 10:23:16;;;;;;;5.15;1.23;;;;;;;;;;5067130;28;20051;-73
2022/12/23 10:25:51;;;;;;;4.88;1.38;;;;;;;;;;5067123;28;20081;-74
2022/12/23 10:28:22;;;;;;;5.00;0.90;;;;;;;;;;5066982;28;20505;-74
2022/12/23 10:31:04;;;;;;;3.53;1.00;;;;;;;;;;5066511;28;20495;-74
2022/12/23 10:34:04;;;;;;;3.67;0.90;;;;;;;;;;5066902;28;20044;-74
2022/12/23 10:36:49;;;;;;;5.47;1.10;;;;;;;;;;5065884;28;20061;-74
2022/12/23 10:39:43;;;;;;;3.60;0.95;;;;;;;;;;5066502;28;20507;-75
2022/12/23 10:42:19;;;;;;;1.83;0.75;;;;;;;;;;5066537;28;20051;-73
2022/12/23 10:45:08;;;;;;;1.52;0.60;;;;;;;;;;5066895;28;20044;-75
2022/12/23 10:47:54;;;;;;;3.50;0.85;;;;;;;;;;5066565;28;20074;-77
2022/12/23 10:50:44;;;;;;;1.63;0.60;;;;;;;;;;5066616;28;20048;-74
2022/12/23 10:53:42;;;;;;;2.75;0.70;;;;;;;;;;5064581;28;20053;-74
2022/12/23 11:07:23;;;;;;;2.47;0.70;;;;;;;;;;5145167;27;20230;-73
2022/12/23 11:10:18;;;;;;;5.28;0.80;;;;;;;;;;5124696;28;20444;-73
2022/12/23 11:12:51;;;;;;;3.92;0.93;;;;;;;;;;5124643;28;20040;-74
2022/12/23 11:15:30;;;;;;;4.93;0.88;;;;;;;;;;5124462;28;20074;-74
2022/12/23 11:18:05;;;;;;;5.30;0.80;;;;;;;;;;5124637;28;20047;-75
2022/12/23 11:20:36;;;;;;;3.13;1.73;;;;;;;;;;5124041;28;20058;-73
2022/12/23 11:23:27;;;;;;;2.50;0.82;;;;;;;;;;5124278;28;20050;-73
2022/12/23 11:26:03;;;;;;;2.67;0.50;;;;;;;;;;5124552;28;20158;-74
2022/12/23 11:28:58;;;;;;;1.52;0.60;;;;;;;;;;5124418;28;20047;-73
2022/12/23 11:31:34;;;;;;;3.05;0.82;;;;;;;;;;5124253;28;20505;-73
2022/12/23 11:34:13;;;;;;;3.75;0.73;;;;;;;;;;5123593;28;20047;-74
2022/12/23 11:36:50;;;;;;;1.73;0.68;;;;;;;;;;5123732;28;20052;-74
2022/12/23 11:39:31;;;;;;;1.40;0.65;;;;;;;;;;5124570;28;20039;-73
2022/12/23 11:42:07;;;;;;;6.85;0.82;;;;;;;;;;5124154;28;20067;-75
2022/12/23 11:44:45;;;;;;;0.93;0.45;;;;;;;;;;5123679;28;20047;-75
2022/12/23 11:47:21;;;;;;;2.65;0.65;;;;;;;;;;5123884;28;20047;-76
2022/12/23 11:49:55;;;;;;;10.02;1.10;;;;;;;;;;5123808;28;20536;-74
2022/12/23 11:52:31;;;;;;;1.75;0.80;;;;;;;;;;5123883;28;20050;-74
2022/12/23 11:55:04;;;;;;;3.17;0.80;;;;;;;;;;5120814;28;20039;-74
2022/12/23 11:57:41;;;;;;;3.67;0.90;;;;;;;;;;5103238;28;20114;-73
2022/12/23 12:00:23;;;;;;;2.78;0.63;;;;;;;;;;5103134;28;20036;-73
2022/12/23 12:03:01;;;;;;;6.85;0.68;;;;;;;;;;5103841;28;20074;-75
2022/12/23 12:05:31;;;;;;;4.20;0.90;;;;;;;;;;5110172;28;20052;-74
2022/12/23 12:08:05;;;;;;;6.53;1.80;;;;;;;;;;5091578;28;20052;-74
2022/12/23 12:10:38;;;;;;;2.95;1.30;;;;;;;;;;5109782;28;20047;-75
2022/12/23 12:13:29;;;;;;;3.15;0.77;;;;;;;;;;5090726;28;20055;-73
2022/12/23 12:16:38;;;;;;;1.77;0.80;;;;;;;;;;5109434;28;20050;-74
2022/12/23 12:19:34;;;;;;;3.60;0.80;;;;;;;;;;5109468;28;20040;-78
2022/12/23 12:22:39;;;;;;;3.45;0.98;;;;;;;;;;5090285;28;20052;-74
2022/12/23 12:25:23;;;;;;;0.65;0.40;;;;;;;;;;5109340;28;20505;-75
2022/12/23 12:28:02;;;;;;;3.95;1.02;;;;;;;;;;5109665;28;20474;-74
2022/12/23 12:31:04;;;;;;;5.22;0.77;;;;;;;;;;5109480;28;20051;-74
2022/12/23 12:34:05;;;;;;;3.10;0.68;;;;;;;;;;5108760;28;20051;-74
2022/12/23 12:36:55;;;;;;;8.48;5.13;;;;;;;;;;5071694;28;21161;-74
2022/12/23 12:39:53;;;;;;;4.47;0.80;;;;;;;;;;5108677;28;20059;-74
2022/12/23 12:42:22;;;;;;;3.05;0.63;;;;;;;;;;5109396;28;20519;-73
2022/12/23 12:45:13;;;;;;;2.15;0.80;;;;;;;;;;5109202;28;20043;-75
2022/12/23 12:48:05;;;;;;;4.05;0.80;;;;;;;;;;5109128;28;20362;-73
2022/12/23 12:51:23;;;;;;;5.47;0.70;;;;;;;;;;5102061;28;20051;-73
2022/12/23 12:54:13;;;;;;;3.25;0.90;;;;;;;;;;5097099;28;20059;-74
2022/12/23 12:56:51;;;;;;;1.77;0.50;;;;;;;;;;5108460;28;20051;-75
2022/12/23 12:59:27;;;;;;;8.00;1.92;;;;;;;;;;5108899;28;20404;-74
2022/12/23 13:02:15;;;;;;;;;;;;;;;;;;5108714;28;20048;-74
2022/12/23 13:04:51;;;;;;;4.07;0.82;;;;;;;;;;5108039;28;20428;-75
2022/12/23 13:07:28;;;;;;;2.58;0.82;;;;;;;;;;5108589;28;20048;-75
2022/12/23 13:10:43;;;;;;;2.05;0.70;;;;;;;;;;5108710;28;20493;-75
2022/12/23 13:13:38;;;;;;;5.40;1.00;;;;;;;;;;5108474;28;20040;-77
2022/12/23 13:16:15;;;;;;;1.83;0.70;;;;;;;;;;5108469;28;20062;-74
2022/12/23 13:19:00;;;;;;;8.85;2.42;;;;;;;;;;5089179;28;20055;-75
2022/12/23 13:21:41;;;;;;;4.00;0.85;;;;;;;;;;5089930;28;20129;-75
2022/12/23 13:24:35;;;;;;;2.40;0.52;;;;;;;;;;5108326;28;20044;-75
2022/12/23 13:27:18;;;;;;;5.40;1.13;;;;;;;;;;5089258;28;20044;-73
2022/12/23 13:30:00;;;;;;;3.28;0.88;;;;;;;;;;5108509;28;20434;-73
2022/12/23 13:32:45;;;;;;;2.42;0.90;;;;;;;;;;5107954;28;20047;-74
2022/12/23 13:35:21;;;;;;;2.72;0.80;;;;;;;;;;5108283;28;20043;-75
2022/12/23 13:37:55;;;;;;;1.83;0.85;;;;;;;;;;5108135;28;20055;-74
2022/12/23 13:40:50;;;;;;;8.70;1.13;;;;;;;;;;5108619;28;20043;-75
2022/12/23 13:43:24;;;;;;;3.65;1.15;;;;;;;;;;5108520;28;20371;-74
2022/12/23 13:45:59;;;;;;;9.13;1.30;;;;;;;;;;5107798;28;20113;-76
2022/12/23 13:48:44;;;;;;;;;;;;;;;;;;5107970;28;20050;-75
2022/12/23 13:51:45;;;;;;;2.08;0.77;;;;;;;;;;5108140;28;19935;-74
2022/12/23 13:54:23;;;;;;;4.68;0.60;;;;;;;;;;5107456;28;20039;-75
2022/12/23 13:57:06;;;;;;;2.88;1.00;;;;;;;;;;5106953;28;20055;-74
2022/12/23 13:59:43;;;;;;;5.00;1.00;;;;;;;;;;5107808;28;20417;-75
2022/12/23 14:02:36;;;;;;;5.75;0.68;;;;;;;;;;5107756;28;20050;-74
2022/12/23 14:05:32;;;;;;;2.25;0.70;;;;;;;;;;5062004;28;20050;-73
2022/12/23 14:08:18;;;;;;;3.92;0.75;;;;;;;;;;5106292;28;20051;-75
2022/12/23 14:11:22;;;;;;;1.00;0.47;;;;;;;;;;5107702;28;20044;-75
2022/12/23 14:13:54;;;;;;;1.92;0.68;;;;;;;;;;5078355;28;20054;-74
2022/12/23 14:17:02;;;;;;;4.00;0.90;;;;;;;;;;5088722;28;20064;-75
2022/12/23 14:20:11;;;;;;;3.88;0.73;;;;;;;;;;5107459;28;20087;-75
2022/12/23 14:23:20;;;;;;;2.28;0.65;;;;;;;;;;5107112;28;20070;-73
2022/12/23 14:26:27;;;;;;;5.53;0.80;;;;;;;;;;5057770;28;20059;-74
2022/12/23 14:29:07;;;;;;;1.85;0.68;;;;;;;;;;5106986;28;20052;-73
2022/12/23 14:31:41;;;;;;;2.70;0.80;;;;;;;;;;5089247;28;20048;-74
2022/12/23 14:34:18;;;;;;;2.83;0.60;;;;;;;;;;5107320;28;20044;-77
2022/12/23 14:37:24;;;;;;;2.53;1.02;;;;;;;;;;5107559;28;20062;-75
2022/12/23 14:39:58;;;;;;;5.78;1.08;;;;;;;;;;5107320;28;20047;-74
2022/12/23 14:42:40;;;;;;;2.25;0.93;;;;;;;;;;5107295;28;20055;-74
2022/12/23 14:45:40;;;;;;;3.38;0.70;;;;;;;;;;5107319;28;20043;-74
2022/12/23 14:48:41;;;;;;;2.13;0.75;;;;;;;;;;5107216;28;20044;-75
2022/12/23 14:51:14;;;;;;;3.55;0.90;;;;;;;;;;5106205;28;20043;-74
2022/12/23 14:53:53;;;;;;;4.00;0.63;;;;;;;;;;5107140;28;20047;-77
2022/12/23 14:56:39;;;;;;;5.00;1.13;;;;;;;;;;5106641;28;20394;-75
2022/12/23 14:59:23;;;;;;;5.07;1.05;;;;;;;;;;5107319;28;20529;-74
2022/12/23 15:02:04;;;;;;;2.50;0.90;;;;;;;;;;5107234;28;20413;-74
2022/12/23 15:04:45;;;;;;;;;;;;;;;;;;5107361;28;20410;-76
2022/12/23 15:07:18;;;;;;;1.92;0.60;;;;;;;;;;5106852;28;19923;-74
2022/12/23 15:09:57;;;;;;;2.47;0.73;;;;;;;;;;5106441;28;20044;-75
2022/12/23 15:12:42;;;;;;;1.27;0.63;;;;;;;;;;5106972;28;20489;-74
2022/12/23 15:15:17;;;;;;;2.88;0.90;;;;;;;;;;5113370;28;20067;-74
2022/12/23 15:17:48;;;;;;;2.90;0.55;;;;;;;;;;5123972;28;20043;-74
2022/12/23 15:20:24;;;;;;;4.13;0.63;;;;;;;;;;5091185;28;20048;-74
2022/12/23 15:23:00;;;;;;;2.42;0.75;;;;;;;;;;5106862;28;20054;-75
2022/12/23 15:25:32;;;;;;;2.42;0.80;;;;;;;;;;5088729;28;20048;-75
2022/12/23 15:28:05;;;;;;;2.42;0.60;;;;;;;;;;5106655;28;20055;-76
2022/12/23 15:30:47;;;;;;;1.58;0.63;;;;;;;;;;5107378;28;20508;-75
2022/12/23 15:33:22;;;;;;;2.00;0.73;;;;;;;;;;5087392;28;20063;-75
2022/12/23 15:36:14;;;;;;;2.67;0.73;;;;;;;;;;5106401;28;20040;-74
2022/12/23 15:38:45;;;;;;;4.57;0.98;;;;;;;;;;5106531;28;20163;-73
2022/12/23 15:41:17;;;;;;;3.78;0.90;;;;;;;;;;5106609;28;20055;-75
2022/12/23 15:43:49;;;;;;;1.65;0.63;;;;;;;;;;5110616;28;20048;-74
2022/12/23 15:46:22;;;;;;;2.53;0.60;;;;;;;;;;5110190;28;20047;-75
2022/12/23 15:48:58;;;;;;;1.67;0.65;;;;;;;;;;5110056;28;20051;-75
2022/12/23 15:51:30;;;;;;;4.13;0.90;;;;;;;;;;5110103;28;20059;-75
2022/12/23 15:54:32;;;;;;;1.42;0.70;;;;;;;;;;5111056;28;20040;-75
2022/12/23 15:57:04;;;;;;;3.05;0.80;;;;;;;;;;5091242;28;20058;-76
2022/12/23 15:59:38;;;;;;;1.98;0.65;;;;;;;;;;5109706;28;20036;-76
2022/12/23 16:02:28;;;;;;;3.25;0.80;;;;;;;;;;5109860;28;20516;-75
2022/12/23 16:05:49;;;;;;;4.60;0.77;;;;;;;;;;5109915;28;20047;-76
2022/12/23 16:08:24;;;;;;;2.83;0.77;;;;;;;;;;5094884;28;20513;-74
2022/12/23 16:11:17;;;;;;;2.25;0.70;;;;;;;;;;5109650;28;20048;-75
2022/12/23 16:14:01;;;;;;;2.45;0.50;;;;;;;;;;5109522;28;20044;-75
2022/12/23 16:16:39;;;;;;;4.57;0.70;;;;;;;;;;5110049;28;20062;-74
2022/12/23 16:19:38;;;;;;;0.82;0.43;;;;;;;;;;5110653;28;20044;-75
2022/12/23 16:22:21;;;;;;;4.32;0.77;;;;;;;;;;5103972;28;20074;-75
2022/12/23 16:24:56;;;;;;;2.10;0.60;;;;;;;;;;5109162;28;20055;-74
2022/12/23 16:27:46;;;;;;;1.10;0.40;;;;;;;;;;5109692;28;20051;-75